createdAt,value
2023-02-11T00:00:40.578Z,102750.50
2023-02-11T00:03:08.312Z,102751.13
2023-02-11T00:05:36.001Z,102747.75
2023-02-11T00:08:03.662Z,102739.16
2023-02-11T00:10:31.503Z,102746.03
2023-02-11T00:13:00.565Z,102758.72
2023-02-11T00:15:28.269Z,102750.47
2023-02-11T00:17:55.948Z,102746.03
2023-02-11T00:20:23.649Z,102738.94
2023-02-11T00:22:51.376Z,102726.28
2023-02-11T00:25:19.085Z,102724.50
2023-02-11T00:27:46.766Z,102712.38
2023-02-11T00:30:16.494Z,102722.06
2023-02-11T00:32:44.192Z,102704.06
2023-02-11T00:35:11.873Z,102711.84
2023-02-11T00:37:39.601Z,102716.00
2023-02-11T00:40:08.265Z,102724.78
2023-02-11T00:42:37.493Z,102715.69
2023-02-11T00:45:05.858Z,102706.09
2023-02-11T00:47:34.875Z,102717.06
2023-02-11T00:50:04.623Z,102711.13
2023-02-11T00:52:32.490Z,102695.25
2023-02-11T00:55:00.154Z,102712.00
2023-02-11T00:57:27.905Z,102711.09
2023-02-11T00:59:56.198Z,102713.59
2023-02-11T01:02:23.894Z,102707.06
2023-02-11T01:04:53.069Z,102714.66
2023-02-11T01:07:20.768Z,102711.41
2023-02-11T01:09:48.441Z,102690.13
2023-02-11T01:12:16.267Z,102678.59
2023-02-11T01:14:44.024Z,102656.66
2023-02-11T01:17:11.903Z,102694.63
2023-02-11T01:19:39.808Z,102689.31
2023-02-11T01:22:08.870Z,102680.38
2023-02-11T01:24:36.631Z,102691.78
2023-02-11T01:27:04.480Z,102671.72
2023-02-11T01:29:32.160Z,102687.69
2023-02-11T01:32:01.291Z,102688.31
2023-02-11T01:34:29.438Z,102683.13
2023-02-11T01:36:59.823Z,102685.69
2023-02-11T01:39:29.141Z,102701.84
2023-02-11T01:41:56.878Z,102688.59
2023-02-11T01:44:27.594Z,102678.78
2023-02-11T01:46:56.380Z,102683.72
2023-02-11T01:49:27.744Z,102674.50
2023-02-11T01:52:00.001Z,102672.00
2023-02-11T01:54:51.002Z,102672.56
2023-02-11T01:57:28.888Z,102674.50
2023-02-11T02:00:06.320Z,102673.41
2023-02-11T02:02:38.360Z,102663.91
2023-02-11T02:05:15.416Z,102665.06
2023-02-11T02:07:50.746Z,102664.66
2023-02-11T02:10:24.253Z,102664.13
2023-02-11T02:12:52.035Z,102669.03
2023-02-11T02:15:26.230Z,102661.03
2023-02-11T02:18:00.158Z,102620.84
2023-02-11T02:21:00.263Z,102657.84
2023-02-11T02:23:36.768Z,102645.75
2023-02-11T02:26:36.618Z,102642.19
2023-02-11T02:29:32.298Z,102649.72
2023-02-11T02:32:23.390Z,102640.13
2023-02-11T02:34:55.136Z,102650.06
2023-02-11T02:37:29.543Z,102643.31
2023-02-11T02:40:00.745Z,102628.00
2023-02-11T02:42:29.144Z,102620.97
2023-02-11T02:44:57.637Z,102606.34
2023-02-11T02:47:26.698Z,102604.53
2023-02-11T02:49:54.422Z,102610.91
2023-02-11T02:52:34.668Z,102605.56
2023-02-11T02:55:17.120Z,102605.03
2023-02-11T02:58:02.818Z,102606.22
2023-02-11T03:00:35.814Z,102605.78
2023-02-11T03:03:17.752Z,102606.53
2023-02-11T03:05:54.082Z,102585.19
2023-02-11T03:08:29.895Z,102609.19
2023-02-11T03:10:59.093Z,102601.06
2023-02-11T03:13:33.437Z,102612.94
2023-02-11T03:16:08.299Z,102610.41
2023-02-11T03:18:40.758Z,102604.31
2023-02-11T03:21:10.982Z,102606.31
2023-02-11T03:23:42.762Z,102599.34
2023-02-11T03:26:15.546Z,102597.28
2023-02-11T03:28:50.339Z,102588.47
2023-02-11T03:31:26.913Z,102596.19
2023-02-11T03:34:02.294Z,102599.13
2023-02-11T03:36:36.794Z,102589.00
2023-02-11T03:39:06.711Z,102584.53
2023-02-11T03:41:37.295Z,102576.66
2023-02-11T03:44:07.105Z,102577.03
2023-02-11T03:46:38.760Z,102570.22
2023-02-11T03:49:13.396Z,102583.31
2023-02-11T03:51:42.012Z,102574.16
2023-02-11T03:54:15.171Z,102574.28
2023-02-11T03:56:49.503Z,102566.31
2023-02-11T03:59:17.154Z,102547.75
2023-02-11T04:01:44.933Z,102564.75
2023-02-11T04:04:14.389Z,102560.34
2023-02-11T04:06:42.205Z,102564.13
2023-02-11T04:09:10.352Z,102563.06
2023-02-11T04:11:38.048Z,102571.78
2023-02-11T04:14:05.809Z,102574.81
2023-02-11T04:16:33.670Z,102561.16
2023-02-11T04:19:01.690Z,102562.72
2023-02-11T04:21:30.752Z,102562.13
2023-02-11T04:23:58.491Z,102557.34
2023-02-11T04:26:26.286Z,102581.81
2023-02-11T04:28:53.964Z,102578.81
2023-02-11T04:31:21.692Z,102563.06
2023-02-11T04:33:49.442Z,102565.09
2023-02-11T04:36:17.143Z,102577.97
2023-02-11T04:38:46.204Z,102582.28
2023-02-11T04:41:13.891Z,102581.00
2023-02-11T04:43:41.582Z,102571.47
2023-02-11T04:46:09.312Z,102539.53
2023-02-11T04:48:37.088Z,102573.56
2023-02-11T04:51:05.147Z,102578.97
2023-02-11T04:53:32.946Z,102571.69
2023-02-11T04:56:02.068Z,102573.03
2023-02-11T04:58:29.709Z,102570.06
2023-02-11T05:00:57.457Z,102568.84
2023-02-11T05:03:25.147Z,102574.16
2023-02-11T05:05:53.163Z,102560.09
2023-02-11T05:08:21.011Z,102582.13
2023-02-11T05:10:49.047Z,102577.09
2023-02-11T05:13:18.094Z,102577.44
2023-02-11T05:15:45.753Z,102590.03
2023-02-11T05:18:14.878Z,102574.59
2023-02-11T05:20:42.972Z,102576.16
2023-02-11T05:23:10.858Z,102583.47
2023-02-11T05:25:38.858Z,102580.75
2023-02-11T05:28:07.099Z,102577.44
2023-02-11T05:30:36.190Z,102577.19
2023-02-11T05:33:03.883Z,102569.00
2023-02-11T05:35:31.576Z,102569.91
2023-02-11T05:37:59.294Z,102581.19
2023-02-11T05:40:27.024Z,102575.50
2023-02-11T05:42:54.758Z,102572.91
2023-02-11T05:45:22.538Z,102568.13
2023-02-11T05:47:51.569Z,102571.75
2023-02-11T05:50:19.796Z,102571.16
2023-02-11T05:52:47.539Z,102581.56
2023-02-11T05:55:15.313Z,102566.47
2023-02-11T05:57:42.991Z,102567.59
2023-02-11T06:00:12.402Z,102564.19
2023-02-11T06:02:40.222Z,102567.66
2023-02-11T06:05:10.149Z,102562.06
2023-02-11T06:07:37.884Z,102542.72
2023-02-11T06:10:06.465Z,102578.09
2023-02-11T06:12:34.323Z,102578.31
2023-02-11T06:15:02.131Z,102545.66
2023-02-11T06:17:31.703Z,102566.38
2023-02-11T06:19:59.408Z,102558.72
2023-02-11T06:22:28.626Z,102555.53
2023-02-11T06:25:01.679Z,102550.13
2023-02-11T06:27:30.117Z,102541.34
2023-02-11T06:29:57.972Z,102541.41
2023-02-11T06:32:43.011Z,102530.13
2023-02-11T06:35:12.575Z,102525.97
2023-02-11T06:37:42.407Z,102457.28
2023-02-11T06:40:12.056Z,102554.66
2023-02-11T06:42:39.841Z,102576.38
2023-02-11T06:45:09.323Z,102584.28
2023-02-11T06:47:37.117Z,102575.84
2023-02-11T06:50:05.858Z,102599.03
2023-02-11T06:52:34.056Z,102599.06
2023-02-11T06:55:03.099Z,102584.75
2023-02-11T06:57:31.749Z,102588.25
2023-02-11T06:59:59.462Z,102597.97
2023-02-11T07:02:27.377Z,102591.69
2023-02-11T07:04:55.145Z,102580.75
2023-02-11T07:07:22.908Z,102588.97
2023-02-11T07:09:50.763Z,102609.50
2023-02-11T07:12:19.892Z,102612.81
2023-02-11T07:14:47.573Z,102604.13
2023-02-11T07:17:15.406Z,102589.44
2023-02-11T07:19:43.363Z,102582.00
2023-02-11T07:22:11.099Z,102607.03
2023-02-11T07:24:38.744Z,102613.38
2023-02-11T07:27:06.670Z,102626.59
2023-02-11T07:29:35.826Z,102642.25
2023-02-11T07:32:03.586Z,102638.03
2023-02-11T07:34:31.388Z,102630.47
2023-02-11T07:36:59.140Z,102635.66
2023-02-11T07:39:27.483Z,102628.25
2023-02-11T07:41:55.644Z,102640.09
2023-02-11T07:44:24.603Z,102644.56
2023-02-11T07:46:53.930Z,102623.56
2023-02-11T07:49:21.690Z,102641.41
2023-02-11T07:51:51.182Z,102640.06
2023-02-11T07:54:19.248Z,102641.88
2023-02-11T07:56:47.000Z,102645.69
2023-02-11T07:59:14.791Z,102652.88
2023-02-11T08:01:42.536Z,102663.81
2023-02-11T08:04:11.579Z,102650.53
2023-02-11T08:06:43.213Z,102654.03
2023-02-11T08:09:14.906Z,102666.78
2023-02-11T08:11:42.621Z,102666.84
2023-02-11T08:14:11.026Z,102676.53
2023-02-11T08:16:39.916Z,102682.94
2023-02-11T08:19:09.494Z,102678.97
2023-02-11T08:21:39.314Z,102676.38
2023-02-11T08:24:08.226Z,102675.47
2023-02-11T08:26:36.177Z,102666.91
2023-02-11T08:29:08.602Z,102678.25
2023-02-11T08:31:38.824Z,102671.66
2023-02-11T08:34:07.176Z,102679.22
2023-02-11T08:36:36.987Z,102677.97
2023-02-11T08:39:18.740Z,102682.38
2023-02-11T08:41:48.839Z,102684.09
2023-02-11T08:44:16.748Z,102701.47
2023-02-11T08:46:44.477Z,102702.66
2023-02-11T08:49:12.316Z,102699.03
2023-02-11T08:51:40.027Z,102703.22
2023-02-11T08:54:10.098Z,102698.16
2023-02-11T08:56:38.995Z,102698.09
2023-02-11T08:59:07.081Z,102700.81
2023-02-11T09:01:34.984Z,102707.38
2023-02-11T09:04:02.838Z,102688.09
2023-02-11T09:06:31.106Z,102700.44
2023-02-11T09:08:59.512Z,102709.19
2023-02-11T09:11:31.496Z,102715.53
2023-02-11T09:13:59.462Z,102722.56
2023-02-11T09:16:30.020Z,102726.28
2023-02-11T09:18:58.470Z,102727.53
2023-02-11T09:21:26.268Z,102733.88
2023-02-11T09:23:54.055Z,102724.75
2023-02-11T09:26:24.519Z,102732.13
2023-02-11T09:28:54.232Z,102734.88
2023-02-11T09:31:24.584Z,102738.97
2023-02-11T09:33:55.697Z,102722.59
2023-02-11T09:36:26.136Z,102725.72
2023-02-11T09:38:54.646Z,102723.34
2023-02-11T09:41:36.723Z,102716.97
2023-02-11T09:44:08.933Z,102732.13
2023-02-11T09:46:38.686Z,102696.66
2023-02-11T09:49:08.480Z,102746.88
2023-02-11T09:51:41.491Z,102745.22
2023-02-11T09:54:17.162Z,102727.63
2023-02-11T09:56:44.975Z,102727.72
2023-02-11T09:59:15.744Z,102723.44
2023-02-11T10:01:49.424Z,102729.56
2023-02-11T10:04:30.081Z,102732.72
2023-02-11T10:07:03.325Z,102739.78
2023-02-11T10:09:46.546Z,102746.59
2023-02-11T10:12:36.165Z,102755.09
2023-02-11T10:15:19.838Z,102751.44
2023-02-11T10:18:03.014Z,102759.19
2023-02-11T10:20:35.649Z,102746.94
2023-02-11T10:23:11.739Z,102755.03
2023-02-11T10:25:44.301Z,102733.91
2023-02-11T10:28:15.719Z,102752.91
2023-02-11T10:30:51.007Z,102758.13
2023-02-11T10:33:26.613Z,102765.06
2023-02-11T10:35:54.459Z,102696.31
2023-02-11T10:38:22.649Z,102766.09
2023-02-11T10:40:50.880Z,102764.50
2023-02-11T10:43:22.379Z,102777.06
2023-02-11T10:45:53.493Z,102778.66
2023-02-11T10:48:42.917Z,102768.50
2023-02-11T10:51:20.434Z,102766.84
2023-02-11T10:53:50.376Z,102762.66
2023-02-11T10:56:25.213Z,102777.41
2023-02-11T10:58:59.086Z,102772.19
2023-02-11T11:01:42.080Z,102765.06
2023-02-11T11:04:35.559Z,102676.56
2023-02-11T11:07:19.724Z,102769.84
2023-02-11T11:09:53.177Z,102763.88
2023-02-11T11:12:34.730Z,102754.97
2023-02-11T11:15:13.551Z,102759.03
2023-02-11T11:17:42.723Z,102759.22
2023-02-11T11:20:28.505Z,102762.81
2023-02-11T11:23:16.614Z,102765.19
2023-02-11T11:25:46.408Z,102746.81
2023-02-11T11:28:25.252Z,102764.06
2023-02-11T11:30:55.012Z,102766.38
2023-02-11T11:33:27.358Z,102757.38
2023-02-11T11:36:02.559Z,102760.66
2023-02-11T11:38:31.936Z,102776.75
2023-02-11T11:41:23.876Z,102773.59
2023-02-11T11:43:57.486Z,102772.22
2023-02-11T11:46:27.817Z,102767.44
2023-02-11T11:49:16.040Z,102768.53
2023-02-11T11:51:50.850Z,102762.47
2023-02-11T11:54:21.448Z,102749.94
2023-02-11T11:56:55.822Z,102768.09
2023-02-11T11:59:23.855Z,102769.63
2023-02-11T12:02:19.363Z,102767.34
2023-02-11T12:05:05.772Z,102771.72
2023-02-11T12:07:45.247Z,102784.84
2023-02-11T12:10:29.037Z,102778.03
2023-02-11T12:13:05.112Z,102775.06
2023-02-11T12:15:37.567Z,102766.22
2023-02-11T12:18:28.566Z,102778.44
2023-02-11T12:21:18.866Z,102783.91
2023-02-11T12:24:03.385Z,102785.88
2023-02-11T12:26:41.009Z,102782.97
2023-02-11T12:29:20.782Z,102776.34
2023-02-11T12:32:07.151Z,102788.06
2023-02-11T12:35:12.213Z,102793.69
2023-02-11T12:37:57.886Z,102780.78
2023-02-11T12:40:43.685Z,102797.91
2023-02-11T12:43:21.462Z,102806.50
2023-02-11T12:46:03.227Z,102797.69
2023-02-11T12:48:56.688Z,102800.56
2023-02-11T12:51:38.988Z,102811.44
2023-02-11T12:54:20.892Z,102808.06
2023-02-11T12:56:55.653Z,102800.47
2023-02-11T12:59:39.498Z,102770.97
2023-02-11T13:02:19.995Z,102794.88
2023-02-11T13:04:53.213Z,102797.41
2023-02-11T13:07:27.009Z,102801.16
2023-02-11T13:10:02.099Z,102787.09
2023-02-11T13:12:50.999Z,102793.22
2023-02-11T13:15:19.275Z,102804.53
2023-02-11T13:17:55.978Z,102751.09
2023-02-11T13:20:36.168Z,102789.09
2023-02-11T13:23:12.772Z,102786.28
2023-02-11T13:25:47.438Z,102779.84
2023-02-11T13:28:41.439Z,102784.84
2023-02-11T13:31:12.704Z,102794.53
2023-02-11T13:33:43.062Z,102786.47
2023-02-11T13:36:20.053Z,102804.81
2023-02-11T13:38:56.898Z,102810.94
2023-02-11T13:41:30.011Z,102819.00
2023-02-11T13:44:00.646Z,102820.50
2023-02-11T13:46:31.521Z,102814.28
2023-02-11T13:48:59.527Z,102786.56
2023-02-11T13:51:38.655Z,102798.66
2023-02-11T13:54:08.740Z,102804.91
2023-02-11T13:56:40.574Z,102785.72
2023-02-11T13:59:46.862Z,102786.72
2023-02-11T14:02:42.699Z,102793.66
2023-02-11T14:05:44.503Z,102769.22
2023-02-11T14:08:41.499Z,102780.91
2023-02-11T14:11:31.399Z,102794.03
2023-02-11T14:14:31.716Z,102801.75
2023-02-11T14:17:31.077Z,102807.69
2023-02-11T14:20:00.399Z,102811.03
2023-02-11T14:22:31.702Z,102811.22
2023-02-11T14:25:01.789Z,102824.25
2023-02-11T14:27:38.567Z,102823.66
2023-02-11T14:30:31.414Z,102758.28
2023-02-11T14:33:26.222Z,102827.63
2023-02-11T14:36:03.708Z,102837.56
2023-02-11T14:38:44.972Z,102825.56
2023-02-11T14:41:22.840Z,102818.56
2023-02-11T14:43:54.340Z,102824.66
2023-02-11T14:46:25.543Z,102814.63
2023-02-11T14:48:56.367Z,102849.00
2023-02-11T14:51:26.766Z,102853.97
2023-02-11T14:54:00.680Z,102860.69
2023-02-11T14:56:31.044Z,102865.88
2023-02-11T14:58:59.606Z,102875.06
2023-02-11T15:01:31.915Z,102886.03
2023-02-11T15:04:01.373Z,102862.78
2023-02-11T15:06:32.733Z,102875.38
2023-02-11T15:09:03.587Z,102903.91
2023-02-11T15:11:35.016Z,102911.88
2023-02-11T15:14:09.785Z,102909.34
2023-02-11T15:16:43.892Z,102908.63
2023-02-11T15:19:21.558Z,102888.50
2023-02-11T15:21:50.662Z,102899.88
2023-02-11T15:24:27.292Z,102901.69
2023-02-11T15:26:59.536Z,102897.84
2023-02-11T15:29:35.551Z,102917.34
2023-02-11T15:32:13.530Z,102871.00
2023-02-11T15:34:41.808Z,102925.00
2023-02-11T15:37:14.382Z,102919.63
2023-02-11T15:39:43.124Z,102920.78
2023-02-11T15:42:21.396Z,102901.88
2023-02-11T15:44:56.492Z,102908.84
2023-02-11T15:47:25.992Z,102914.56
2023-02-11T15:49:53.731Z,102902.50
2023-02-11T15:52:27.472Z,102912.50
2023-02-11T15:54:56.982Z,102908.69
2023-02-11T15:57:24.779Z,102903.22
2023-02-11T15:59:56.280Z,102912.22
2023-02-11T16:02:32.053Z,102913.38
2023-02-11T16:05:08.686Z,102904.94
2023-02-11T16:07:42.483Z,102920.34
2023-02-11T16:10:26.447Z,102928.13
2023-02-11T16:12:57.883Z,102940.91
2023-02-11T16:15:44.084Z,102942.25
2023-02-11T16:18:36.835Z,102938.31
2023-02-11T16:21:07.714Z,102947.38
2023-02-11T16:23:38.822Z,102941.50
2023-02-11T16:26:12.375Z,102950.44
2023-02-11T16:28:41.064Z,102954.91
2023-02-11T16:31:09.687Z,102946.03
2023-02-11T16:33:39.000Z,102951.66
2023-02-11T16:36:13.337Z,102936.16
2023-02-11T16:38:41.332Z,102967.41
2023-02-11T16:41:11.768Z,102988.53
2023-02-11T16:43:40.001Z,102993.66
2023-02-11T16:46:09.329Z,102998.41
2023-02-11T16:48:39.056Z,103001.84
2023-02-11T16:51:09.205Z,102999.22
2023-02-11T16:53:37.019Z,103001.84
2023-02-11T16:56:05.326Z,102985.41
2023-02-11T16:58:33.737Z,103014.19
2023-02-11T17:01:01.885Z,103008.56
2023-02-11T17:03:30.245Z,103021.88
2023-02-11T17:06:02.882Z,103024.28
2023-02-11T17:08:30.854Z,103024.34
2023-02-11T17:10:58.698Z,103026.78
2023-02-11T17:13:26.693Z,103028.78
2023-02-11T17:15:55.150Z,103030.34
2023-02-11T17:18:23.062Z,103040.06
2023-02-11T17:20:50.964Z,103037.66
2023-02-11T17:23:20.052Z,103038.13
2023-02-11T17:25:48.281Z,103046.72
2023-02-11T17:28:16.082Z,103052.94
2023-02-11T17:30:44.178Z,103050.09
2023-02-11T17:33:11.920Z,103049.25
2023-02-11T17:35:41.572Z,103051.03
2023-02-11T17:38:09.384Z,103055.69
2023-02-11T17:40:38.606Z,103047.59
2023-02-11T17:43:06.552Z,103065.19
2023-02-11T17:45:34.469Z,103064.47
2023-02-11T17:48:02.423Z,103063.03
2023-02-11T17:50:30.347Z,103063.75
2023-02-11T17:52:58.340Z,103077.38
2023-02-11T17:55:26.140Z,103080.50
2023-02-11T17:57:55.471Z,103070.75
2023-02-11T18:00:23.664Z,103081.53
2023-02-11T18:02:51.582Z,103080.03
2023-02-11T18:05:19.678Z,103072.72
2023-02-11T18:07:48.444Z,103073.50
2023-02-11T18:10:16.318Z,103084.81
2023-02-11T18:12:44.309Z,103080.97
2023-02-11T18:15:13.890Z,103090.88
2023-02-11T18:17:41.689Z,103095.88
2023-02-11T18:20:10.422Z,103099.03
2023-02-11T18:22:40.897Z,103102.03
2023-02-11T18:25:09.431Z,103087.13
2023-02-11T18:27:37.306Z,103113.53
2023-02-11T18:30:06.211Z,103116.88
2023-02-11T18:32:35.469Z,103111.75
2023-02-11T18:35:03.520Z,103113.19
2023-02-11T18:37:31.282Z,103121.03
2023-02-11T18:39:59.480Z,103122.69
2023-02-11T18:42:28.033Z,103129.69
2023-02-11T18:44:56.006Z,103108.91
2023-02-11T18:47:23.859Z,103125.28
2023-02-11T18:49:53.044Z,103127.44
2023-02-11T18:52:20.803Z,103140.56
2023-02-11T18:54:51.366Z,103141.25
2023-02-11T18:57:19.142Z,103149.16
2023-02-11T18:59:46.898Z,103151.56
2023-02-11T19:02:14.699Z,103122.94
2023-02-11T19:04:42.416Z,103136.56
2023-02-11T19:07:11.767Z,103132.38
2023-02-11T19:09:39.520Z,103129.03
2023-02-11T19:12:08.687Z,103136.91
2023-02-11T19:14:38.617Z,103136.81
2023-02-11T19:17:10.810Z,103145.31
2023-02-11T19:19:38.630Z,103153.75
2023-02-11T19:22:10.246Z,103167.00
2023-02-11T19:24:40.059Z,103165.38
2023-02-11T19:27:07.882Z,103152.94
2023-02-11T19:29:35.627Z,103106.69
2023-02-11T19:32:03.851Z,103147.50
2023-02-11T19:34:31.618Z,103156.59
2023-02-11T19:37:01.597Z,103150.84
2023-02-11T19:39:29.449Z,103171.50
2023-02-11T19:41:58.587Z,103169.03
2023-02-11T19:44:26.542Z,103168.09
2023-02-11T19:46:54.799Z,103149.78
2023-02-11T19:49:25.847Z,103151.06
2023-02-11T19:51:55.380Z,103157.19
2023-02-11T19:54:23.362Z,103122.63
2023-02-11T19:56:51.070Z,103141.94
2023-02-11T19:59:21.028Z,103136.00
2023-02-11T20:01:49.146Z,103146.63
2023-02-11T20:04:17.898Z,103064.03
2023-02-11T20:06:48.091Z,103143.53
2023-02-11T20:09:17.626Z,103147.31
2023-02-11T20:11:45.467Z,103148.88
2023-02-11T20:14:14.812Z,103150.66
2023-02-11T20:16:49.081Z,103146.34
2023-02-11T20:19:19.361Z,103154.69
2023-02-11T20:21:48.728Z,103143.75
2023-02-11T20:24:16.921Z,103124.06
2023-02-11T20:26:46.824Z,103159.03
2023-02-11T20:29:15.375Z,103162.56
2023-02-11T20:31:45.028Z,103167.75
2023-02-11T20:34:12.993Z,103168.66
2023-02-11T20:36:41.062Z,103166.22
2023-02-11T20:39:09.541Z,103166.25
2023-02-11T20:41:39.848Z,103173.34
2023-02-11T20:44:09.723Z,103187.09
2023-02-11T20:46:40.032Z,103193.06
2023-02-11T20:49:10.799Z,103121.25
2023-02-11T20:51:38.789Z,103198.84
2023-02-11T20:54:07.158Z,103206.88
2023-02-11T20:56:37.616Z,103180.84
2023-02-11T20:59:06.670Z,103206.28
2023-02-11T21:01:36.215Z,103212.78
2023-02-11T21:04:05.980Z,103191.13
2023-02-11T21:06:37.676Z,103183.06
2023-02-11T21:09:07.203Z,103209.06
2023-02-11T21:11:34.976Z,103189.81
2023-02-11T21:14:02.970Z,103209.22
2023-02-11T21:16:30.812Z,103219.22
2023-02-11T21:18:58.664Z,103226.44
2023-02-11T21:21:36.198Z,103225.78
2023-02-11T21:24:05.705Z,103233.78
2023-02-11T21:26:35.395Z,103236.25
2023-02-11T21:29:03.638Z,103245.38
2023-02-11T21:31:33.506Z,103251.31
2023-02-11T21:34:01.493Z,103249.47
2023-02-11T21:36:30.582Z,103240.59
2023-02-11T21:38:58.809Z,103242.47
2023-02-11T21:41:28.139Z,103259.41
2023-02-11T21:43:56.052Z,103256.84
2023-02-11T21:46:24.118Z,103248.63
2023-02-11T21:48:52.279Z,103232.38
2023-02-11T21:51:21.931Z,103256.09
2023-02-11T21:53:53.700Z,103266.09
2023-02-11T21:56:21.520Z,103266.59
2023-02-11T21:58:53.459Z,103266.00
2023-02-11T22:01:23.610Z,103272.50
2023-02-11T22:03:51.655Z,103285.34
2023-02-11T22:06:22.239Z,103282.16
2023-02-11T22:08:50.340Z,103284.13
2023-02-11T22:11:18.482Z,103286.09
2023-02-11T22:13:46.860Z,103291.78
2023-02-11T22:16:18.101Z,103298.72
2023-02-11T22:18:46.519Z,103298.78
2023-02-11T22:21:16.944Z,103292.34
2023-02-11T22:23:45.584Z,103318.06
2023-02-11T22:26:16.792Z,103313.00
2023-02-11T22:28:45.134Z,103306.47
2023-02-11T22:31:15.694Z,103288.38
2023-02-11T22:33:44.005Z,103301.25
2023-02-11T22:36:16.536Z,103302.34
2023-02-11T22:38:47.310Z,103331.06
2023-02-11T22:41:16.209Z,103328.97
2023-02-11T22:43:45.055Z,103319.19
2023-02-11T22:46:16.256Z,103324.28
2023-02-11T22:48:44.513Z,103343.09
2023-02-11T22:51:14.132Z,103333.75
2023-02-11T22:53:42.165Z,103336.97
2023-02-11T22:56:15.211Z,103334.94
2023-02-11T22:58:43.887Z,103346.03
2023-02-11T23:01:12.602Z,103356.13
2023-02-11T23:03:42.228Z,103341.63
2023-02-11T23:06:10.504Z,103346.13
2023-02-11T23:08:40.599Z,103352.56
2023-02-11T23:11:11.401Z,103365.03
2023-02-11T23:13:41.410Z,103360.97
2023-02-11T23:16:11.060Z,103366.19
2023-02-11T23:18:43.869Z,103366.69
2023-02-11T23:21:15.821Z,103280.03
2023-02-11T23:23:43.955Z,103361.78
2023-02-11T23:26:12.595Z,103365.09
2023-02-11T23:28:40.936Z,103364.78
2023-02-11T23:31:17.194Z,103338.81
2023-02-11T23:33:47.459Z,103364.78
2023-02-11T23:36:16.965Z,103371.31
2023-02-11T23:38:44.948Z,103368.75
2023-02-11T23:41:13.127Z,103359.69
2023-02-11T23:43:41.174Z,103380.47
2023-02-11T23:46:09.656Z,103356.09
2023-02-11T23:48:37.860Z,103378.41
2023-02-11T23:51:09.565Z,103363.75
2023-02-11T23:53:37.695Z,103391.34
2023-02-11T23:56:09.092Z,103320.16
2023-02-11T23:58:37.251Z,103382.59
